createdAt,value
2019-02-15T00:00:12.790Z,2.90
2019-02-15T00:02:39.655Z,3.07
2019-02-15T00:05:06.583Z,3.35
2019-02-15T00:07:33.431Z,3.34
2019-02-15T00:10:00.314Z,3.22
2019-02-15T00:12:27.106Z,3.37
2019-02-15T00:14:53.950Z,3.18
2019-02-15T00:17:42.302Z,3.12
2019-02-15T00:20:13.052Z,3.22
2019-02-15T00:22:39.919Z,3.16
2019-02-15T00:25:06.756Z,3.18
2019-02-15T00:27:33.602Z,3.16
2019-02-15T00:30:00.435Z,3.36
2019-02-15T00:32:27.303Z,3.30
2019-02-15T00:34:54.135Z,3.38
2019-02-15T00:37:20.986Z,3.24
2019-02-15T00:39:47.826Z,3.30
2019-02-15T00:42:14.678Z,3.26
2019-02-15T00:44:41.515Z,3.17
2019-02-15T00:47:29.867Z,2.91
2019-02-15T00:50:05.690Z,3.04
2019-02-15T00:52:42.289Z,3.09
2019-02-15T00:55:15.792Z,3.09
2019-02-15T00:58:04.091Z,3.11
2019-02-15T01:00:51.531Z,3.10
2019-02-15T01:03:29.898Z,2.65
2019-02-15T01:06:02.430Z,2.51
2019-02-15T01:08:39.263Z,2.44
2019-02-15T01:11:11.393Z,2.54
2019-02-15T01:13:38.250Z,2.60
2019-02-15T01:16:05.077Z,2.76
2019-02-15T01:18:31.930Z,2.62
2019-02-15T01:20:58.762Z,2.59
2019-02-15T01:23:25.782Z,2.61
2019-02-15T01:26:02.635Z,2.65
2019-02-15T01:28:37.433Z,2.81
2019-02-15T01:31:29.874Z,3.05
2019-02-15T01:34:06.155Z,2.92
2019-02-15T01:36:41.319Z,2.94
2019-02-15T01:39:22.558Z,2.84
2019-02-15T01:42:00.569Z,2.93
2019-02-15T01:44:33.125Z,2.78
2019-02-15T01:47:09.118Z,2.74
2019-02-15T01:49:35.950Z,2.83
2019-02-15T01:52:02.806Z,2.75
2019-02-15T01:54:29.639Z,2.71
2019-02-15T01:56:56.495Z,2.83
2019-02-15T01:59:23.326Z,2.70
2019-02-15T02:01:50.182Z,2.73
2019-02-15T02:04:17.022Z,2.78
2019-02-15T02:06:43.855Z,2.69
2019-02-15T02:09:10.702Z,2.73
2019-02-15T02:11:37.538Z,2.70
2019-02-15T02:14:04.391Z,2.66
2019-02-15T02:16:31.233Z,2.62
2019-02-15T02:18:58.092Z,2.45
2019-02-15T02:21:24.934Z,2.46
2019-02-15T02:23:51.787Z,2.51
2019-02-15T02:26:18.626Z,2.48
2019-02-15T02:28:45.505Z,2.54
2019-02-15T02:31:12.339Z,2.45
2019-02-15T02:33:39.216Z,2.43
2019-02-15T02:36:06.067Z,2.58
2019-02-15T02:38:32.934Z,2.56
2019-02-15T02:40:59.762Z,2.53
2019-02-15T02:43:26.619Z,2.60
2019-02-15T02:45:53.455Z,2.46
2019-02-15T02:48:20.306Z,2.49
2019-02-15T02:50:47.143Z,2.59
2019-02-15T02:53:13.994Z,2.56
2019-02-15T02:55:40.833Z,2.67
2019-02-15T02:58:07.682Z,2.61
2019-02-15T03:00:34.521Z,2.58
2019-02-15T03:03:01.374Z,2.59
2019-02-15T03:05:28.264Z,2.47
2019-02-15T03:07:55.087Z,2.53
2019-02-15T03:10:21.938Z,2.41
2019-02-15T03:12:48.790Z,2.49
2019-02-15T03:15:15.636Z,2.45
2019-02-15T03:17:42.476Z,2.29
2019-02-15T03:20:09.314Z,2.33
2019-02-15T03:22:36.155Z,2.13
2019-02-15T03:25:03.040Z,2.28
2019-02-15T03:27:29.872Z,2.24
2019-02-15T03:29:56.711Z,2.39
2019-02-15T03:32:23.547Z,2.62
2019-02-15T03:34:50.416Z,2.49
2019-02-15T03:37:36.823Z,2.63
2019-02-15T03:40:13.562Z,2.79
2019-02-15T03:42:40.403Z,2.60
2019-02-15T03:45:08.132Z,2.86
2019-02-15T03:47:34.289Z,2.56
2019-02-15T03:50:01.173Z,2.77
2019-02-15T03:52:28.018Z,2.43
2019-02-15T03:54:54.876Z,2.56
2019-02-15T03:57:21.717Z,2.50
2019-02-15T03:59:48.886Z,2.36
2019-02-15T04:02:15.718Z,2.47
2019-02-15T04:04:42.557Z,2.34
2019-02-15T04:07:09.395Z,2.24
2019-02-15T04:09:36.264Z,2.47
2019-02-15T04:12:03.106Z,2.43
2019-02-15T04:14:32.814Z,2.51
2019-02-15T04:16:56.807Z,2.45
2019-02-15T04:19:23.658Z,2.66
2019-02-15T04:21:50.503Z,2.50
2019-02-15T04:24:17.347Z,2.63
2019-02-15T04:26:44.194Z,2.45
2019-02-15T04:29:11.042Z,2.36
2019-02-15T04:31:37.959Z,2.18
2019-02-15T04:34:04.807Z,2.34
2019-02-15T04:36:31.658Z,2.19
2019-02-15T04:38:58.502Z,2.14
2019-02-15T04:41:25.334Z,2.15
2019-02-15T04:43:52.190Z,1.99
2019-02-15T04:46:19.030Z,1.91
2019-02-15T04:48:45.883Z,2.03
2019-02-15T04:51:12.746Z,1.93
2019-02-15T04:53:39.583Z,1.93
2019-02-15T04:56:06.417Z,2.03
2019-02-15T04:58:33.258Z,1.94
2019-02-15T05:01:00.104Z,1.95
2019-02-15T05:03:26.930Z,2.15
2019-02-15T05:05:53.867Z,1.71
2019-02-15T05:08:20.703Z,1.84
2019-02-15T05:10:47.851Z,1.68
2019-02-15T05:13:14.606Z,1.74
2019-02-15T05:15:41.479Z,1.73
2019-02-15T05:18:08.302Z,1.70
2019-02-15T05:20:35.158Z,1.67
2019-02-15T05:23:02.044Z,1.67
2019-02-15T05:25:29.859Z,1.70
2019-02-15T05:27:56.693Z,1.70
2019-02-15T05:30:23.721Z,1.57
2019-02-15T05:32:50.566Z,1.56
2019-02-15T05:35:17.508Z,1.42
2019-02-15T05:37:44.355Z,1.42
2019-02-15T05:40:11.199Z,1.43
2019-02-15T05:42:38.047Z,1.54
2019-02-15T05:45:05.211Z,1.57
2019-02-15T05:47:32.033Z,1.38
2019-02-15T05:49:58.906Z,1.36
2019-02-15T05:52:25.731Z,1.24
2019-02-15T05:54:52.695Z,1.13
2019-02-15T05:57:19.522Z,1.36
2019-02-15T05:59:46.455Z,1.44
2019-02-15T06:02:13.248Z,1.51
2019-02-15T06:04:40.084Z,1.43
2019-02-15T06:07:06.933Z,1.44
2019-02-15T06:09:33.760Z,1.47
2019-02-15T06:12:00.586Z,1.27
2019-02-15T06:14:27.454Z,1.43
2019-02-15T06:16:54.323Z,1.43
2019-02-15T06:19:21.169Z,1.41
2019-02-15T06:21:48.132Z,1.48
2019-02-15T06:24:14.870Z,1.43
2019-02-15T06:26:41.805Z,1.51
2019-02-15T06:29:08.672Z,1.56
2019-02-15T06:31:35.520Z,1.48
2019-02-15T06:34:02.347Z,1.57
2019-02-15T06:36:32.358Z,1.73
2019-02-15T06:38:59.212Z,1.70
2019-02-15T06:41:26.083Z,1.64
2019-02-15T06:43:52.910Z,1.59
2019-02-15T06:46:19.758Z,1.43
2019-02-15T06:48:46.590Z,1.41
2019-02-15T06:51:13.438Z,1.35
2019-02-15T06:53:40.299Z,1.50
2019-02-15T06:56:07.134Z,1.61
2019-02-15T06:58:33.975Z,1.55
2019-02-15T07:01:06.606Z,1.67
2019-02-15T07:03:40.815Z,1.67
2019-02-15T07:06:07.662Z,1.71
2019-02-15T07:08:34.498Z,1.53
2019-02-15T07:11:01.350Z,1.61
2019-02-15T07:13:28.199Z,1.67
2019-02-15T07:15:55.050Z,1.79
2019-02-15T07:18:21.882Z,1.71
2019-02-15T07:20:48.738Z,1.81
2019-02-15T07:23:15.574Z,1.83
2019-02-15T07:25:42.433Z,1.76
2019-02-15T07:28:09.287Z,1.64
2019-02-15T07:30:36.129Z,1.73
2019-02-15T07:33:02.959Z,1.67
2019-02-15T07:35:29.818Z,1.73
2019-02-15T07:37:56.653Z,1.89
2019-02-15T07:40:23.506Z,1.78
2019-02-15T07:42:50.595Z,1.97
2019-02-15T07:45:17.998Z,2.05
2019-02-15T07:47:44.526Z,2.16
2019-02-15T07:50:12.082Z,2.38
2019-02-15T07:52:38.938Z,2.34
2019-02-15T07:55:05.817Z,2.29
2019-02-15T07:57:33.963Z,2.59
2019-02-15T08:00:00.651Z,2.57
2019-02-15T08:02:26.407Z,2.49
2019-02-15T08:04:53.250Z,2.38
2019-02-15T08:07:20.107Z,2.50
2019-02-15T08:09:46.957Z,2.67
2019-02-15T08:12:13.819Z,2.72
2019-02-15T08:14:40.658Z,2.92
2019-02-15T08:17:07.514Z,3.10
2019-02-15T08:19:34.358Z,3.14
2019-02-15T08:22:01.210Z,3.06
2019-02-15T08:24:28.064Z,3.16
2019-02-15T08:26:54.943Z,3.17
2019-02-15T08:29:21.789Z,3.24
2019-02-15T08:31:48.657Z,3.44
2019-02-15T08:34:15.498Z,3.42
2019-02-15T08:36:42.343Z,3.47
2019-02-15T08:39:09.181Z,3.57
2019-02-15T08:41:36.035Z,3.85
2019-02-15T08:44:02.861Z,3.91
2019-02-15T08:46:29.753Z,4.02
2019-02-15T08:48:56.590Z,4.12
2019-02-15T08:51:23.442Z,4.11
2019-02-15T08:53:50.484Z,4.21
2019-02-15T08:56:17.202Z,4.23
2019-02-15T08:58:44.046Z,4.30
2019-02-15T09:01:11.003Z,4.32
2019-02-15T09:03:37.851Z,4.36
2019-02-15T09:06:04.703Z,4.49
2019-02-15T09:08:31.561Z,4.55
2019-02-15T09:10:58.399Z,4.64
2019-02-15T09:13:25.239Z,4.79
2019-02-15T09:15:52.078Z,4.94
2019-02-15T09:18:18.934Z,4.89
2019-02-15T09:20:45.781Z,4.93
2019-02-15T09:23:12.641Z,5.09
2019-02-15T09:25:39.482Z,5.28
2019-02-15T09:28:21.149Z,5.47
2019-02-15T09:30:50.806Z,5.56
2019-02-15T09:33:17.675Z,5.72
2019-02-15T09:35:44.507Z,5.63
2019-02-15T09:38:11.369Z,5.85
2019-02-15T09:40:38.206Z,6.03
2019-02-15T09:43:05.097Z,6.09
2019-02-15T09:45:33.024Z,6.17
2019-02-15T09:47:58.806Z,6.42
2019-02-15T09:50:25.662Z,6.27
2019-02-15T09:52:52.519Z,6.33
2019-02-15T09:55:19.357Z,6.38
2019-02-15T09:57:46.257Z,6.58
2019-02-15T10:00:13.111Z,6.65
2019-02-15T10:02:39.971Z,6.76
2019-02-15T10:05:06.827Z,6.89
2019-02-15T10:07:33.783Z,7.06
2019-02-15T10:10:00.642Z,7.13
2019-02-15T10:12:27.533Z,7.25
2019-02-15T10:14:54.343Z,7.45
2019-02-15T10:17:21.171Z,7.55
2019-02-15T10:19:48.042Z,7.50
2019-02-15T10:22:14.855Z,7.48
2019-02-15T10:24:41.686Z,7.67
2019-02-15T10:27:08.568Z,7.80
2019-02-15T10:29:35.401Z,7.51
2019-02-15T10:32:02.254Z,7.61
2019-02-15T10:34:29.098Z,7.79
2019-02-15T10:36:55.961Z,7.85
2019-02-15T10:39:22.910Z,7.85
2019-02-15T10:41:49.785Z,7.76
2019-02-15T10:44:16.621Z,7.85
2019-02-15T10:46:43.474Z,8.04
2019-02-15T10:49:10.307Z,8.05
2019-02-15T10:51:37.161Z,8.21
2019-02-15T10:54:04.000Z,8.27
2019-02-15T10:56:30.842Z,8.43
2019-02-15T10:58:57.683Z,8.46
2019-02-15T11:01:24.541Z,8.42
2019-02-15T11:03:51.367Z,8.50
2019-02-15T11:06:18.234Z,8.80
2019-02-15T11:08:45.066Z,8.82
2019-02-15T11:11:11.914Z,8.68
2019-02-15T11:13:38.737Z,8.97
2019-02-15T11:16:05.616Z,9.09
2019-02-15T11:18:32.454Z,9.18
2019-02-15T11:20:59.306Z,9.18
2019-02-15T11:23:26.138Z,9.20
2019-02-15T11:25:53.027Z,9.26
2019-02-15T11:28:19.830Z,9.34
2019-02-15T11:30:46.691Z,9.64
2019-02-15T11:33:13.510Z,9.61
2019-02-15T11:35:40.354Z,9.53
2019-02-15T11:38:07.183Z,9.57
2019-02-15T11:40:34.022Z,9.76
2019-02-15T11:43:00.943Z,9.88
2019-02-15T11:45:28.458Z,10.08
2019-02-15T11:47:55.296Z,10.00
2019-02-15T11:50:22.116Z,10.05
2019-02-15T11:52:48.958Z,10.14
2019-02-15T11:55:15.808Z,10.29
2019-02-15T11:57:42.674Z,10.31
2019-02-15T12:00:14.224Z,10.38
2019-02-15T12:02:37.662Z,10.51
2019-02-15T12:05:05.198Z,10.64
2019-02-15T12:07:32.050Z,10.65
2019-02-15T12:09:58.958Z,10.81
2019-02-15T12:12:25.811Z,10.96
2019-02-15T12:14:52.682Z,10.90
2019-02-15T12:17:20.477Z,10.82
2019-02-15T12:19:47.315Z,11.15
2019-02-15T12:22:14.202Z,11.10
2019-02-15T12:24:41.131Z,10.97
2019-02-15T12:27:08.005Z,11.02
2019-02-15T12:29:34.922Z,11.19
2019-02-15T12:32:01.874Z,11.39
2019-02-15T12:34:28.702Z,11.46
2019-02-15T12:36:55.550Z,11.65
2019-02-15T12:39:22.371Z,11.59
2019-02-15T12:41:49.210Z,11.50
2019-02-15T12:44:16.088Z,11.53
2019-02-15T12:46:42.926Z,11.75
2019-02-15T12:49:09.750Z,11.81
2019-02-15T12:51:36.585Z,11.86
2019-02-15T12:54:03.454Z,11.98
2019-02-15T12:56:30.399Z,12.01
2019-02-15T12:58:57.262Z,12.03
2019-02-15T13:01:24.094Z,12.19
2019-02-15T13:03:50.922Z,12.09
2019-02-15T13:06:17.799Z,12.35
2019-02-15T13:08:44.742Z,12.31
2019-02-15T13:11:11.602Z,12.24
2019-02-15T13:13:38.487Z,12.27
2019-02-15T13:16:05.337Z,12.34
2019-02-15T13:18:32.202Z,12.31
2019-02-15T13:20:59.042Z,12.42
2019-02-15T13:23:25.902Z,12.44
2019-02-15T13:25:52.760Z,12.46
2019-02-15T13:28:19.579Z,12.50
2019-02-15T13:30:46.483Z,12.68
2019-02-15T13:33:13.373Z,12.99
2019-02-15T13:35:40.186Z,12.71
2019-02-15T13:38:07.039Z,12.78
2019-02-15T13:40:33.867Z,12.90
2019-02-15T13:43:00.702Z,13.00
2019-02-15T13:45:29.538Z,13.08
2019-02-15T13:47:55.694Z,13.16
2019-02-15T13:50:22.522Z,13.20
2019-02-15T13:52:49.366Z,13.17
2019-02-15T13:55:16.186Z,13.28
2019-02-15T13:57:43.223Z,13.23
2019-02-15T14:00:10.601Z,13.40
2019-02-15T14:02:37.437Z,13.35
2019-02-15T14:05:04.383Z,13.50
2019-02-15T14:07:31.238Z,13.67
2019-02-15T14:09:58.086Z,13.93
2019-02-15T14:12:24.911Z,13.79
2019-02-15T14:14:51.771Z,13.82
2019-02-15T14:17:18.623Z,13.95
2019-02-15T14:19:45.461Z,13.85
2019-02-15T14:22:12.291Z,13.93
2019-02-15T14:24:39.142Z,13.79
2019-02-15T14:27:06.842Z,13.54
2019-02-15T14:29:33.718Z,13.34
2019-02-15T14:32:00.631Z,13.13
2019-02-15T14:34:27.495Z,13.04
2019-02-15T14:36:54.324Z,13.21
2019-02-15T14:39:21.172Z,13.26
2019-02-15T14:41:48.127Z,13.19
2019-02-15T14:44:14.842Z,13.23
2019-02-15T14:46:41.675Z,13.24
2019-02-15T14:49:08.511Z,13.32
2019-02-15T14:51:35.350Z,13.31
2019-02-15T14:54:02.206Z,13.33
2019-02-15T14:56:29.029Z,13.33
2019-02-15T14:58:55.882Z,13.31
2019-02-15T15:01:22.738Z,13.34
2019-02-15T15:03:49.738Z,13.36
2019-02-15T15:06:16.554Z,13.20
2019-02-15T15:08:43.409Z,13.07
2019-02-15T15:12:53.698Z,12.91
2019-02-15T15:15:20.597Z,12.77
2019-02-15T15:17:47.448Z,12.84
2019-02-15T15:20:14.297Z,12.63
2019-02-15T15:22:41.211Z,12.52
2019-02-15T15:25:08.673Z,12.52
2019-02-15T15:27:35.491Z,12.45
2019-02-15T15:30:02.395Z,12.37
2019-02-15T15:32:29.222Z,12.22
2019-02-15T15:34:56.158Z,12.11
2019-02-15T15:37:23.012Z,12.12
2019-02-15T15:39:49.888Z,12.14
2019-02-15T15:42:16.774Z,12.02
2019-02-15T15:44:43.638Z,11.88
2019-02-15T15:47:10.468Z,11.83
2019-02-15T15:49:37.311Z,11.74
2019-02-15T15:52:04.137Z,11.65
2019-02-15T15:54:30.991Z,11.55
2019-02-15T15:56:57.823Z,11.51
2019-02-15T15:59:24.627Z,11.43
2019-02-15T16:01:51.522Z,11.39
2019-02-15T16:04:18.367Z,11.24
2019-02-15T16:06:45.798Z,11.14
2019-02-15T16:09:12.642Z,10.99
2019-02-15T16:11:39.471Z,10.89
2019-02-15T16:14:06.314Z,10.85
2019-02-15T16:16:33.142Z,10.78
2019-02-15T16:19:00.020Z,10.64
2019-02-15T16:21:26.830Z,10.46
2019-02-15T16:23:53.661Z,10.51
2019-02-15T16:26:20.558Z,10.49
2019-02-15T16:28:47.390Z,10.33
2019-02-15T16:31:14.231Z,9.96
2019-02-15T16:33:41.051Z,9.79
2019-02-15T16:36:07.906Z,9.65
2019-02-15T16:38:34.726Z,9.57
2019-02-15T16:41:01.578Z,9.55
2019-02-15T16:43:28.402Z,9.51
2019-02-15T16:45:55.234Z,9.36
2019-02-15T16:48:22.128Z,9.17
2019-02-15T16:50:48.966Z,9.13
2019-02-15T16:53:15.798Z,9.09
2019-02-15T16:55:42.671Z,9.20
2019-02-15T16:58:09.498Z,9.25
2019-02-15T17:00:36.356Z,9.22
2019-02-15T17:03:03.185Z,9.32
2019-02-15T17:05:30.046Z,9.38
2019-02-15T17:07:56.894Z,9.52
2019-02-15T17:10:23.759Z,9.51
2019-02-15T17:12:50.654Z,9.36
2019-02-15T17:15:17.505Z,9.20
2019-02-15T17:17:44.363Z,8.79
2019-02-15T17:20:11.213Z,8.55
2019-02-15T17:22:39.616Z,8.36
2019-02-15T17:25:07.370Z,8.40
2019-02-15T17:27:34.210Z,8.18
2019-02-15T17:30:01.134Z,8.16
2019-02-15T17:32:27.942Z,8.17
2019-02-15T17:34:54.803Z,8.19
2019-02-15T17:37:21.726Z,8.27
2019-02-15T17:39:48.559Z,8.50
2019-02-15T17:42:15.462Z,8.53
2019-02-15T17:44:42.362Z,8.43
2019-02-15T17:47:09.218Z,8.16
2019-02-15T17:49:36.054Z,8.00
2019-02-15T17:52:02.903Z,8.02
2019-02-15T17:54:29.734Z,8.02
2019-02-15T17:56:56.606Z,8.11
2019-02-15T17:59:23.472Z,8.14
2019-02-15T18:01:50.319Z,8.03
2019-02-15T18:04:17.159Z,8.23
2019-02-15T18:06:44.071Z,8.40
2019-02-15T18:09:10.894Z,8.63
2019-02-15T18:11:37.766Z,8.80
2019-02-15T18:14:04.609Z,8.91
2019-02-15T18:16:31.465Z,8.73
2019-02-15T18:18:58.303Z,8.67
2019-02-15T18:21:25.150Z,8.63
2019-02-15T18:23:52.010Z,8.19
2019-02-15T18:26:18.854Z,8.06
2019-02-15T18:28:45.686Z,7.79
2019-02-15T18:31:12.545Z,7.82
2019-02-15T18:33:39.362Z,8.24
2019-02-15T18:36:06.218Z,8.27
2019-02-15T18:38:33.041Z,8.29
2019-02-15T18:40:59.897Z,8.03
2019-02-15T18:43:26.723Z,7.98
2019-02-15T18:45:53.582Z,7.94
2019-02-15T18:48:20.426Z,7.76
2019-02-15T18:50:47.335Z,7.48
2019-02-15T18:53:14.183Z,7.23
2019-02-15T18:55:41.067Z,7.22
2019-02-15T18:58:07.950Z,7.11
2019-02-15T19:00:34.797Z,6.90
2019-02-15T19:03:01.658Z,6.63
2019-02-15T19:05:28.604Z,6.53
2019-02-15T19:07:55.466Z,6.49
2019-02-15T19:10:22.340Z,6.53
2019-02-15T19:12:49.246Z,6.65
2019-02-15T19:15:16.086Z,6.68
2019-02-15T19:17:42.954Z,6.74
2019-02-15T19:20:10.401Z,6.96
2019-02-15T19:22:37.270Z,7.03
2019-02-15T19:25:04.912Z,6.93
2019-02-15T19:27:31.774Z,7.00
2019-02-15T19:29:58.621Z,7.07
2019-02-15T19:32:25.490Z,7.22
2019-02-15T19:34:52.346Z,7.34
2019-02-15T19:37:19.228Z,7.63
2019-02-15T19:39:46.080Z,7.74
2019-02-15T19:42:16.301Z,7.82
2019-02-15T19:44:43.158Z,7.73
2019-02-15T19:47:10.051Z,7.83
2019-02-15T19:49:39.102Z,7.90
2019-02-15T19:52:03.931Z,8.01
2019-02-15T19:54:30.807Z,8.06
2019-02-15T19:56:57.865Z,8.21
2019-02-15T19:59:24.774Z,8.11
2019-02-15T20:01:51.754Z,8.00
2019-02-15T20:04:18.606Z,7.84
2019-02-15T20:06:45.570Z,7.73
2019-02-15T20:09:12.581Z,7.56
2019-02-15T20:11:39.450Z,7.63
2019-02-15T20:14:06.331Z,7.68
2019-02-15T20:16:33.469Z,7.56
2019-02-15T20:19:00.468Z,7.61
2019-02-15T20:21:27.329Z,7.50
2019-02-15T20:23:54.243Z,7.38
2019-02-15T20:26:21.126Z,7.31
2019-02-15T20:28:48.063Z,7.40
2019-02-15T20:31:14.969Z,7.22
2019-02-15T20:33:41.943Z,7.02
2019-02-15T20:36:08.803Z,6.98
2019-02-15T20:38:35.718Z,6.94
2019-02-15T20:41:02.674Z,6.86
2019-02-15T20:43:29.637Z,6.68
2019-02-15T20:45:56.847Z,6.39
2019-02-15T20:48:23.791Z,6.33
2019-02-15T20:50:50.522Z,6.27
2019-02-15T20:53:17.411Z,6.26
2019-02-15T20:55:44.258Z,6.17
2019-02-15T20:58:11.147Z,6.17
2019-02-15T21:00:38.072Z,6.16
2019-02-15T21:03:04.979Z,6.31
2019-02-15T21:05:31.803Z,6.26
2019-02-15T21:07:58.678Z,6.16
2019-02-15T21:10:25.531Z,6.19
2019-02-15T21:12:52.406Z,5.94
2019-02-15T21:15:19.247Z,5.80
2019-02-15T21:17:46.201Z,5.69
2019-02-15T21:20:12.990Z,5.39
2019-02-15T21:22:39.858Z,5.13
2019-02-15T21:25:08.182Z,5.00
2019-02-15T21:27:35.049Z,5.01
2019-02-15T21:30:01.962Z,5.32
2019-02-15T21:32:28.798Z,5.50
2019-02-15T21:34:55.634Z,5.43
2019-02-15T21:37:22.489Z,5.80
2019-02-15T21:39:49.339Z,5.47
2019-02-15T21:42:16.524Z,5.49
2019-02-15T21:44:43.354Z,5.42
2019-02-15T21:47:10.222Z,5.18
2019-02-15T21:49:38.497Z,5.11
2019-02-15T21:52:04.024Z,4.97
2019-02-15T21:54:30.867Z,4.93
2019-02-15T21:56:57.714Z,5.26
2019-02-15T21:59:24.589Z,5.10
2019-02-15T22:01:51.425Z,5.00
2019-02-15T22:04:18.286Z,5.57
2019-02-15T22:06:45.129Z,5.02
2019-02-15T22:09:12.006Z,4.97
2019-02-15T22:11:39.863Z,4.88
2019-02-15T22:14:06.709Z,4.77
2019-02-15T22:16:33.538Z,4.90
2019-02-15T22:19:00.586Z,4.83
2019-02-15T22:21:27.435Z,4.73
2019-02-15T22:23:54.294Z,4.47
2019-02-15T22:26:21.130Z,4.22
2019-02-15T22:28:48.083Z,4.01
2019-02-15T22:31:14.842Z,3.73
2019-02-15T22:33:41.695Z,3.87
2019-02-15T22:36:08.597Z,3.94
2019-02-15T22:38:35.442Z,4.52
2019-02-15T22:41:10.514Z,3.90
2019-02-15T22:43:37.370Z,3.74
2019-02-15T22:46:04.199Z,3.85
2019-02-15T22:48:31.042Z,4.33
2019-02-15T22:50:58.099Z,4.50
2019-02-15T22:53:24.954Z,4.38
2019-02-15T22:55:51.795Z,4.35
2019-02-15T22:58:18.635Z,3.64
2019-02-15T23:00:50.489Z,4.23
2019-02-15T23:03:20.210Z,4.60
2019-02-15T23:05:47.050Z,4.60
2019-02-15T23:08:13.914Z,3.81
2019-02-15T23:10:40.833Z,3.31
2019-02-15T23:13:07.658Z,3.41
2019-02-15T23:15:34.494Z,3.41
2019-02-15T23:18:01.358Z,3.13
2019-02-15T23:20:28.206Z,3.09
2019-02-15T23:22:55.066Z,3.16
2019-02-15T23:25:21.910Z,3.25
2019-02-15T23:27:48.763Z,3.25
2019-02-15T23:30:15.599Z,3.24
2019-02-15T23:32:42.458Z,3.14
2019-02-15T23:35:09.309Z,2.99
2019-02-15T23:37:36.142Z,2.87
2019-02-15T23:40:03.349Z,2.81
2019-02-15T23:45:10.422Z,2.76
2019-02-15T23:47:37.255Z,2.95
2019-02-15T23:50:04.181Z,2.66
2019-02-15T23:52:31.026Z,2.64
2019-02-15T23:54:57.891Z,2.53
2019-02-15T23:57:24.724Z,2.40
2019-02-15T23:59:51.585Z,2.28
